createdAt,value
2023-03-04T00:00:46.474Z,0.00
2023-03-04T00:01:46.350Z,0.00
2023-03-04T00:02:46.326Z,0.00
2023-03-04T00:03:46.278Z,0.00
2023-03-04T00:04:46.267Z,0.00
2023-03-04T00:05:46.245Z,0.00
2023-03-04T00:06:46.230Z,0.00
2023-03-04T00:07:46.226Z,0.00
2023-03-04T00:08:46.196Z,0.00
2023-03-04T00:09:46.182Z,0.00
2023-03-04T00:10:46.183Z,0.00
2023-03-04T00:11:46.148Z,0.00
2023-03-04T00:12:46.129Z,0.00
2023-03-04T00:13:46.114Z,0.00
2023-03-04T00:14:46.110Z,0.00
2023-03-04T00:15:46.081Z,0.00
2023-03-04T00:16:46.118Z,0.00
2023-03-04T00:17:46.096Z,0.00
2023-03-04T00:18:46.027Z,0.00
2023-03-04T00:19:46.030Z,0.00
2023-03-04T00:20:46.000Z,0.00
2023-03-04T00:21:45.982Z,0.00
2023-03-04T00:22:47.225Z,0.00
2023-03-04T00:23:45.955Z,0.00
2023-03-04T00:24:45.936Z,0.00
2023-03-04T00:25:45.919Z,0.00
2023-03-04T00:26:45.926Z,0.00
2023-03-04T00:27:45.893Z,0.00
2023-03-04T00:28:45.862Z,0.00
2023-03-04T00:29:45.858Z,0.00
2023-03-04T00:30:45.830Z,0.00
2023-03-04T00:31:45.832Z,0.00
2023-03-04T00:32:45.969Z,0.00
2023-03-04T00:33:45.787Z,0.00
2023-03-04T00:34:45.770Z,0.00
2023-03-04T00:35:45.878Z,0.00
2023-03-04T00:36:45.730Z,0.00
2023-03-04T00:37:45.721Z,0.00
2023-03-04T00:38:45.700Z,0.00
2023-03-04T00:39:45.709Z,0.00
2023-03-04T00:40:45.668Z,0.00
2023-03-04T00:41:45.655Z,0.00
2023-03-04T00:42:45.651Z,0.00
2023-03-04T00:43:45.621Z,0.00
2023-03-04T00:44:45.600Z,0.00
2023-03-04T00:45:45.617Z,0.00
2023-03-04T00:46:45.566Z,0.00
2023-03-04T00:47:45.554Z,0.00
2023-03-04T00:48:45.533Z,0.00
2023-03-04T00:49:45.521Z,0.00
2023-03-04T00:50:45.501Z,0.00
2023-03-04T00:51:45.488Z,0.00
2023-03-04T00:52:45.469Z,0.00
2023-03-04T00:53:45.455Z,0.00
2023-03-04T00:54:45.442Z,0.00
2023-03-04T00:55:45.434Z,0.00
2023-03-04T00:56:45.406Z,0.00
2023-03-04T00:57:45.400Z,0.00
2023-03-04T00:58:45.401Z,0.00
2023-03-04T00:59:45.363Z,0.00
2023-03-04T01:00:45.341Z,0.00
2023-03-04T01:01:45.444Z,0.00
2023-03-04T01:02:45.420Z,0.00
2023-03-04T01:03:45.303Z,0.00
2023-03-04T01:04:45.269Z,0.00
2023-03-04T01:05:45.262Z,0.00
2023-03-04T01:06:45.237Z,0.00
2023-03-04T01:07:45.223Z,0.00
2023-03-04T01:08:45.210Z,0.00
2023-03-04T01:09:45.189Z,0.00
2023-03-04T01:10:45.170Z,0.00
2023-03-04T01:11:45.164Z,0.00
2023-03-04T01:12:45.135Z,0.00
2023-03-04T01:13:45.124Z,0.00
2023-03-04T01:14:45.121Z,0.00
2023-03-04T01:15:45.089Z,0.00
2023-03-04T01:16:45.091Z,0.00
2023-03-04T01:17:45.072Z,0.00
2023-03-04T01:18:45.038Z,0.00
2023-03-04T01:19:45.023Z,0.00
2023-03-04T01:20:45.003Z,0.00
2023-03-04T01:21:44.998Z,0.00
2023-03-04T01:22:44.970Z,0.00
2023-03-04T01:23:44.955Z,0.00
2023-03-04T01:24:44.936Z,0.00
2023-03-04T01:25:44.923Z,0.00
2023-03-04T01:26:44.905Z,0.00
2023-03-04T01:27:44.890Z,0.00
2023-03-04T01:28:44.874Z,0.00
2023-03-04T01:29:44.864Z,0.00
2023-03-04T01:30:44.897Z,0.00
2023-03-04T01:31:44.820Z,0.00
2023-03-04T01:32:44.800Z,0.00
2023-03-04T01:33:44.787Z,0.00
2023-03-04T01:34:44.767Z,0.00
2023-03-04T01:35:44.793Z,0.00
2023-03-04T01:36:44.741Z,0.00
2023-03-04T01:37:44.719Z,0.00
2023-03-04T01:38:44.700Z,0.00
2023-03-04T01:39:44.686Z,0.00
2023-03-04T01:40:44.667Z,0.00
2023-03-04T01:41:44.654Z,0.00
2023-03-04T01:42:44.632Z,0.00
2023-03-04T01:43:44.620Z,0.00
2023-03-04T01:44:44.601Z,0.00
2023-03-04T01:45:44.587Z,0.00
2023-03-04T01:46:44.584Z,0.00
2023-03-04T01:47:44.550Z,0.00
2023-03-04T01:48:44.623Z,0.00
2023-03-04T01:49:44.518Z,0.00
2023-03-04T01:50:44.496Z,0.00
2023-03-04T01:51:44.504Z,0.00
2023-03-04T01:52:44.462Z,0.00
2023-03-04T01:53:44.495Z,0.00
2023-03-04T01:54:44.446Z,0.00
2023-03-04T01:55:44.414Z,0.00
2023-03-04T01:56:44.396Z,0.00
2023-03-04T01:57:44.378Z,0.00
2023-03-04T01:58:44.362Z,0.00
2023-03-04T01:59:44.347Z,0.00
2023-03-04T02:00:44.322Z,0.00
2023-03-04T02:01:44.494Z,0.00
2023-03-04T02:02:44.307Z,0.00
2023-03-04T02:03:44.275Z,0.00
2023-03-04T02:04:44.255Z,0.00
2023-03-04T02:05:44.238Z,0.00
2023-03-04T02:06:44.220Z,0.00
2023-03-04T02:07:44.204Z,0.00
2023-03-04T02:08:44.184Z,0.00
2023-03-04T02:09:44.169Z,0.00
2023-03-04T02:10:44.148Z,0.00
2023-03-04T02:11:44.141Z,0.00
2023-03-04T02:12:44.112Z,0.00
2023-03-04T02:13:44.105Z,0.00
2023-03-04T02:14:44.086Z,0.00
2023-03-04T02:15:44.115Z,0.00
2023-03-04T02:16:44.045Z,0.00
2023-03-04T02:17:44.029Z,0.00
2023-03-04T02:18:44.029Z,0.00
2023-03-04T02:19:44.008Z,0.00
2023-03-04T02:20:43.974Z,0.00
2023-03-04T02:21:43.968Z,0.00
2023-03-04T02:22:43.946Z,0.00
2023-03-04T02:23:43.925Z,0.00
2023-03-04T02:24:43.904Z,0.00
2023-03-04T02:25:43.889Z,0.00
2023-03-04T02:26:43.870Z,0.00
2023-03-04T02:27:43.856Z,0.00
2023-03-04T02:28:43.836Z,0.00
2023-03-04T02:29:43.823Z,0.00
2023-03-04T02:30:43.800Z,0.00
2023-03-04T02:31:43.786Z,0.00
2023-03-04T02:32:43.765Z,0.00
2023-03-04T02:33:43.755Z,0.00
2023-03-04T02:34:46.156Z,0.00
2023-03-04T02:35:43.785Z,0.00
2023-03-04T02:36:43.697Z,0.00
2023-03-04T02:37:43.678Z,0.00
2023-03-04T02:38:43.663Z,0.00
2023-03-04T02:39:43.651Z,0.00
2023-03-04T02:40:43.624Z,0.00
2023-03-04T02:41:44.644Z,0.00
2023-03-04T02:42:43.597Z,0.00
2023-03-04T02:43:43.575Z,0.00
2023-03-04T02:44:43.568Z,0.00
2023-03-04T02:45:43.540Z,0.00
2023-03-04T02:46:43.577Z,0.00
2023-03-04T02:47:43.507Z,0.00
2023-03-04T02:48:43.490Z,0.00
2023-03-04T02:49:43.474Z,0.00
2023-03-04T02:50:43.481Z,0.00
2023-03-04T02:51:43.436Z,0.00
2023-03-04T02:52:43.418Z,0.00
2023-03-04T02:53:43.402Z,0.00
2023-03-04T02:54:43.384Z,0.00
2023-03-04T02:55:43.369Z,0.00
2023-03-04T02:56:43.345Z,0.00
2023-03-04T02:57:43.335Z,0.00
2023-03-04T02:58:43.312Z,0.00
2023-03-04T02:59:43.305Z,0.00
2023-03-04T03:00:43.278Z,0.00
2023-03-04T03:01:43.312Z,0.00
2023-03-04T03:02:43.311Z,0.00
2023-03-04T03:03:43.231Z,0.00
2023-03-04T03:04:43.207Z,0.00
2023-03-04T03:05:43.191Z,0.00
2023-03-04T03:06:43.192Z,0.00
2023-03-04T03:07:43.156Z,0.00
2023-03-04T03:08:43.152Z,0.00
2023-03-04T03:09:43.133Z,0.00
2023-03-04T03:10:43.106Z,0.00
2023-03-04T03:11:43.094Z,0.00
2023-03-04T03:12:43.081Z,0.00
2023-03-04T03:13:43.054Z,0.00
2023-03-04T03:14:43.030Z,0.00
2023-03-04T03:15:43.017Z,0.00
2023-03-04T03:16:42.994Z,0.00
2023-03-04T03:17:42.980Z,0.00
2023-03-04T03:18:42.963Z,0.00
2023-03-04T03:19:42.945Z,0.00
2023-03-04T03:20:42.920Z,0.00
2023-03-04T03:21:42.909Z,0.00
2023-03-04T03:22:42.917Z,0.00
2023-03-04T03:23:42.872Z,0.00
2023-03-04T03:24:42.850Z,0.00
2023-03-04T03:25:42.835Z,0.00
2023-03-04T03:26:42.816Z,0.00
2023-03-04T03:27:42.808Z,0.00
2023-03-04T03:28:42.779Z,0.00
2023-03-04T03:29:42.768Z,0.00
2023-03-04T03:30:42.742Z,0.00
2023-03-04T03:31:42.789Z,0.00
2023-03-04T03:32:42.718Z,0.00
2023-03-04T03:33:42.707Z,0.00
2023-03-04T03:34:42.676Z,0.00
2023-03-04T03:35:42.688Z,0.00
2023-03-04T03:36:42.693Z,0.00
2023-03-04T03:37:42.626Z,0.00
2023-03-04T03:38:42.621Z,0.00
2023-03-04T03:39:42.606Z,0.00
2023-03-04T03:40:42.563Z,0.00
2023-03-04T03:41:42.549Z,0.00
2023-03-04T03:42:42.531Z,0.00
2023-03-04T03:43:42.522Z,0.00
2023-03-04T03:44:42.492Z,0.00
2023-03-04T03:45:42.503Z,0.00
2023-03-04T03:46:42.457Z,0.00
2023-03-04T03:47:42.455Z,0.00
2023-03-04T03:48:42.432Z,0.00
2023-03-04T03:49:42.408Z,0.00
2023-03-04T03:50:42.388Z,0.00
2023-03-04T03:51:42.376Z,0.00
2023-03-04T03:52:42.350Z,0.00
2023-03-04T03:53:42.340Z,0.00
2023-03-04T03:54:42.336Z,0.00
2023-03-04T03:55:42.303Z,0.00
2023-03-04T03:56:42.281Z,0.00
2023-03-04T03:57:42.272Z,0.00
2023-03-04T03:58:42.249Z,0.00
2023-03-04T03:59:42.233Z,0.00
2023-03-04T04:00:42.210Z,0.00
2023-03-04T04:01:42.228Z,0.00
2023-03-04T04:02:42.299Z,0.00
2023-03-04T04:03:42.162Z,0.00
2023-03-04T04:04:42.139Z,0.00
2023-03-04T04:05:42.125Z,0.00
2023-03-04T04:06:42.108Z,0.00
2023-03-04T04:07:42.091Z,0.00
2023-03-04T04:08:42.069Z,0.00
2023-03-04T04:09:42.054Z,0.00
2023-03-04T04:10:42.058Z,0.00
2023-03-04T04:11:42.045Z,0.00
2023-03-04T04:12:42.001Z,0.00
2023-03-04T04:13:41.984Z,0.00
2023-03-04T04:14:41.968Z,0.00
2023-03-04T04:15:41.947Z,0.00
2023-03-04T04:16:41.947Z,0.00
2023-03-04T04:17:41.914Z,0.00
2023-03-04T04:18:41.892Z,0.00
2023-03-04T04:19:41.876Z,0.00
2023-03-04T04:20:41.857Z,0.00
2023-03-04T04:21:41.841Z,0.00
2023-03-04T04:22:41.821Z,0.00
2023-03-04T04:23:41.803Z,0.00
2023-03-04T04:24:41.785Z,0.00
2023-03-04T04:25:41.771Z,0.00
2023-03-04T04:26:41.780Z,0.00
2023-03-04T04:27:41.735Z,0.00
2023-03-04T04:28:41.711Z,0.00
2023-03-04T04:29:41.689Z,0.00
2023-03-04T04:30:41.776Z,0.00
2023-03-04T04:31:41.661Z,0.00
2023-03-04T04:32:41.641Z,0.00
2023-03-04T04:33:41.618Z,0.00
2023-03-04T04:34:41.604Z,0.00
2023-03-04T04:35:41.613Z,0.00
2023-03-04T04:36:41.575Z,0.00
2023-03-04T04:37:41.548Z,0.00
2023-03-04T04:38:41.530Z,0.00
2023-03-04T04:39:41.517Z,0.00
2023-03-04T04:40:41.494Z,0.00
2023-03-04T04:41:41.479Z,0.00
2023-03-04T04:42:41.511Z,0.00
2023-03-04T04:43:41.442Z,0.00
2023-03-04T04:44:41.420Z,0.00
2023-03-04T04:45:41.413Z,0.00
2023-03-04T04:46:41.384Z,0.00
2023-03-04T04:47:41.362Z,0.00
2023-03-04T04:48:41.381Z,0.00
2023-03-04T04:49:41.326Z,0.00
2023-03-04T04:50:41.312Z,0.00
2023-03-04T04:51:41.291Z,0.00
2023-03-04T04:52:41.274Z,0.00
2023-03-04T04:53:41.256Z,0.00
2023-03-04T04:54:41.240Z,0.00
2023-03-04T04:55:41.218Z,0.00
2023-03-04T04:56:41.200Z,0.00
2023-03-04T04:57:41.184Z,0.00
2023-03-04T04:58:41.187Z,0.00
2023-03-04T04:59:41.144Z,0.00
2023-03-04T05:00:41.130Z,0.00
2023-03-04T05:01:41.163Z,0.00
2023-03-04T05:02:41.093Z,0.00
2023-03-04T05:03:41.161Z,0.00
2023-03-04T05:04:41.066Z,0.00
2023-03-04T05:05:41.040Z,0.00
2023-03-04T05:06:41.024Z,0.00
2023-03-04T05:07:41.008Z,0.00
2023-03-04T05:08:40.988Z,0.00
2023-03-04T05:09:40.968Z,0.00
2023-03-04T05:10:40.954Z,0.00
2023-03-04T05:11:40.934Z,0.00
2023-03-04T05:12:40.924Z,0.00
2023-03-04T05:13:40.898Z,0.00
2023-03-04T05:14:40.900Z,0.00
2023-03-04T05:15:40.885Z,0.00
2023-03-04T05:16:40.845Z,0.00
2023-03-04T05:17:40.825Z,0.00
2023-03-04T05:18:40.810Z,0.00
2023-03-04T05:19:40.790Z,0.00
2023-03-04T05:20:40.805Z,0.00
2023-03-04T05:21:40.755Z,0.00
2023-03-04T05:22:40.739Z,0.00
2023-03-04T05:23:40.718Z,0.00
2023-03-04T05:24:40.724Z,0.00
2023-03-04T05:25:40.685Z,0.00
2023-03-04T05:26:40.677Z,0.00
2023-03-04T05:27:40.645Z,0.00
2023-03-04T05:28:40.657Z,0.00
2023-03-04T05:29:40.607Z,0.00
2023-03-04T05:30:40.626Z,0.00
2023-03-04T05:31:40.571Z,0.00
2023-03-04T05:32:40.561Z,0.00
2023-03-04T05:33:40.551Z,0.00
2023-03-04T05:34:40.520Z,0.00
2023-03-04T05:35:40.573Z,0.00
2023-03-04T05:36:40.495Z,0.00
2023-03-04T05:37:40.466Z,0.00
2023-03-04T05:38:40.458Z,0.00
2023-03-04T05:39:40.430Z,0.00
2023-03-04T05:40:40.423Z,0.00
2023-03-04T05:41:40.391Z,0.00
2023-03-04T05:42:40.379Z,0.00
2023-03-04T05:43:40.357Z,0.00
2023-03-04T05:44:40.365Z,0.00
2023-03-04T05:45:40.318Z,0.00
2023-03-04T05:46:40.339Z,0.00
2023-03-04T05:47:40.286Z,0.00
2023-03-04T05:48:40.267Z,0.00
2023-03-04T05:49:40.244Z,0.00
2023-03-04T05:50:40.231Z,0.00
2023-03-04T05:51:40.213Z,0.00
2023-03-04T05:52:40.194Z,0.00
2023-03-04T05:53:40.198Z,0.00
2023-03-04T05:54:40.164Z,0.00
2023-03-04T05:55:40.136Z,0.00
2023-03-04T05:56:40.120Z,0.00
2023-03-04T05:57:40.102Z,0.00
2023-03-04T05:58:40.087Z,0.00
2023-03-04T05:59:40.070Z,0.00
2023-03-04T06:00:40.047Z,0.00
2023-03-04T06:01:40.026Z,0.00
2023-03-04T06:02:40.185Z,0.00
2023-03-04T06:03:40.072Z,0.00
2023-03-04T06:04:39.973Z,0.00
2023-03-04T06:05:39.954Z,0.00
2023-03-04T06:06:39.937Z,0.00
2023-03-04T06:07:39.918Z,0.00
2023-03-04T06:08:39.902Z,0.00
2023-03-04T06:09:39.879Z,0.00
2023-03-04T06:10:39.868Z,0.00
2023-03-04T06:11:39.842Z,5.63
2023-03-04T06:12:39.827Z,5.63
2023-03-04T06:13:39.808Z,5.63
2023-03-04T06:14:39.791Z,5.63
2023-03-04T06:15:39.778Z,5.63
2023-03-04T06:16:39.753Z,5.63
2023-03-04T06:17:42.031Z,5.63
2023-03-04T06:18:39.746Z,5.63
2023-03-04T06:19:39.701Z,5.63
2023-03-04T06:20:39.681Z,5.63
2023-03-04T06:21:39.666Z,5.63
2023-03-04T06:22:39.656Z,5.63
2023-03-04T06:23:39.623Z,5.63
2023-03-04T06:24:39.616Z,5.63
2023-03-04T06:25:39.587Z,11.25
2023-03-04T06:26:39.574Z,11.25
2023-03-04T06:27:39.553Z,11.25
2023-03-04T06:28:39.535Z,11.25
2023-03-04T06:29:39.522Z,11.25
2023-03-04T06:30:39.497Z,11.25
2023-03-04T06:31:39.570Z,11.25
2023-03-04T06:32:39.462Z,16.88
2023-03-04T06:33:39.440Z,16.88
2023-03-04T06:34:39.442Z,16.88
2023-03-04T06:35:39.446Z,16.88
2023-03-04T06:36:39.387Z,16.88
2023-03-04T06:37:39.387Z,16.88
2023-03-04T06:38:39.348Z,16.88
2023-03-04T06:39:39.332Z,16.88
2023-03-04T06:40:39.319Z,16.88
2023-03-04T06:41:39.291Z,16.88
2023-03-04T06:42:39.278Z,16.88
2023-03-04T06:43:39.279Z,16.88
2023-03-04T06:44:39.251Z,22.50
2023-03-04T06:45:39.227Z,22.50
2023-03-04T06:46:39.230Z,22.50
2023-03-04T06:47:39.184Z,22.50
2023-03-04T06:48:39.168Z,22.50
2023-03-04T06:49:39.146Z,22.50
2023-03-04T06:50:39.245Z,22.50
2023-03-04T06:51:39.114Z,22.50
2023-03-04T06:52:39.094Z,22.50
2023-03-04T06:53:39.080Z,22.50
2023-03-04T06:54:39.061Z,22.50
2023-03-04T06:55:39.037Z,22.50
2023-03-04T06:56:39.021Z,28.13
2023-03-04T06:57:39.001Z,28.13
2023-03-04T06:58:38.985Z,28.13
2023-03-04T06:59:38.968Z,28.13
2023-03-04T07:00:39.015Z,28.13
2023-03-04T07:01:38.928Z,28.13
2023-03-04T07:02:38.913Z,28.13
2023-03-04T07:03:38.893Z,28.13
2023-03-04T07:04:38.886Z,28.13
2023-03-04T07:05:38.857Z,33.75
2023-03-04T07:06:38.872Z,33.75
2023-03-04T07:07:38.836Z,33.75
2023-03-04T07:08:38.806Z,33.75
2023-03-04T07:09:38.793Z,33.75
2023-03-04T07:10:38.773Z,39.38
2023-03-04T07:11:38.752Z,39.38
2023-03-04T07:12:38.733Z,39.38
2023-03-04T07:13:38.713Z,33.75
2023-03-04T07:14:38.697Z,33.75
2023-03-04T07:15:38.678Z,33.75
2023-03-04T07:16:38.703Z,39.38
2023-03-04T07:17:38.642Z,39.38
2023-03-04T07:18:38.628Z,39.38
2023-03-04T07:19:38.604Z,39.38
2023-03-04T07:20:38.592Z,45.00
2023-03-04T07:21:38.577Z,45.00
2023-03-04T07:22:38.586Z,45.00
2023-03-04T07:23:38.532Z,50.63
2023-03-04T07:24:38.517Z,50.63
2023-03-04T07:25:38.498Z,45.00
2023-03-04T07:26:38.496Z,45.00
2023-03-04T07:27:38.468Z,50.63
2023-03-04T07:28:38.450Z,45.00
2023-03-04T07:29:38.427Z,50.63
2023-03-04T07:30:38.412Z,50.63
2023-03-04T07:31:38.443Z,50.63
2023-03-04T07:32:38.384Z,50.63
2023-03-04T07:33:38.354Z,50.63
2023-03-04T07:34:38.347Z,50.63
2023-03-04T07:35:38.390Z,50.63
2023-03-04T07:36:38.505Z,50.63
2023-03-04T07:37:38.285Z,50.63
2023-03-04T07:38:38.288Z,50.63
2023-03-04T07:39:38.264Z,50.63
2023-03-04T07:40:38.235Z,50.63
2023-03-04T07:41:38.226Z,50.63
2023-03-04T07:42:38.218Z,50.63
2023-03-04T07:43:38.203Z,50.63
2023-03-04T07:44:38.173Z,50.63
2023-03-04T07:45:38.168Z,50.63
2023-03-04T07:46:38.133Z,50.63
2023-03-04T07:47:38.112Z,50.63
2023-03-04T07:48:38.104Z,56.25
2023-03-04T07:49:38.092Z,56.25
2023-03-04T07:50:38.062Z,56.25
2023-03-04T07:51:38.042Z,61.88
2023-03-04T07:52:38.026Z,61.88
2023-03-04T07:53:38.012Z,61.88
2023-03-04T07:54:38.011Z,67.50
2023-03-04T07:55:37.984Z,67.50
2023-03-04T07:56:37.959Z,67.50
2023-03-04T07:57:37.938Z,67.50
2023-03-04T07:58:37.932Z,67.50
2023-03-04T07:59:37.904Z,67.50
2023-03-04T08:00:37.897Z,67.50
2023-03-04T08:01:37.892Z,67.50
2023-03-04T08:02:37.936Z,67.50
2023-03-04T08:03:37.846Z,67.50
2023-03-04T08:04:37.819Z,67.50
2023-03-04T08:05:37.800Z,67.50
2023-03-04T08:06:37.784Z,73.13
2023-03-04T08:07:37.766Z,73.13
2023-03-04T08:08:37.752Z,73.13
2023-03-04T08:09:37.729Z,73.13
2023-03-04T08:10:37.744Z,73.13
2023-03-04T08:11:37.760Z,73.13
2023-03-04T08:12:37.745Z,78.75
2023-03-04T08:13:37.661Z,78.75
2023-03-04T08:14:37.650Z,78.75
2023-03-04T08:15:37.650Z,78.75
2023-03-04T08:16:37.613Z,78.75
2023-03-04T08:17:37.595Z,78.75
2023-03-04T08:18:37.582Z,78.75
2023-03-04T08:19:37.562Z,78.75
2023-03-04T08:20:37.549Z,78.75
2023-03-04T08:21:37.535Z,78.75
2023-03-04T08:22:37.518Z,78.75
2023-03-04T08:23:37.525Z,78.75
2023-03-04T08:24:37.478Z,78.75
2023-03-04T08:25:37.460Z,78.75
2023-03-04T08:26:40.355Z,78.75
2023-03-04T08:27:37.428Z,78.75
2023-03-04T08:28:37.416Z,78.75
2023-03-04T08:29:37.393Z,78.75
2023-03-04T08:30:37.380Z,78.75
2023-03-04T08:31:37.489Z,78.75
2023-03-04T08:32:37.534Z,78.75
2023-03-04T08:33:37.327Z,78.75
2023-03-04T08:34:37.315Z,78.75
2023-03-04T08:35:37.355Z,78.75
2023-03-04T08:36:37.303Z,78.75
2023-03-04T08:37:37.265Z,78.75
2023-03-04T08:38:37.246Z,78.75
2023-03-04T08:39:37.233Z,78.75
2023-03-04T08:40:37.213Z,78.75
2023-03-04T08:41:37.203Z,78.75
2023-03-04T08:42:37.209Z,78.75
2023-03-04T08:43:37.173Z,78.75
2023-03-04T08:44:37.148Z,78.75
2023-03-04T08:45:37.134Z,84.38
2023-03-04T08:46:37.121Z,84.38
2023-03-04T08:47:37.106Z,84.38
2023-03-04T08:48:37.086Z,84.38
2023-03-04T08:49:37.072Z,84.38
2023-03-04T08:50:37.059Z,84.38
2023-03-04T08:51:37.040Z,84.38
2023-03-04T08:52:37.033Z,84.38
2023-03-04T08:53:37.009Z,84.38
2023-03-04T08:54:37.009Z,84.38
2023-03-04T08:55:36.990Z,84.38
2023-03-04T08:56:36.957Z,84.38
2023-03-04T08:57:36.950Z,84.38
2023-03-04T08:58:36.969Z,84.38
2023-03-04T08:59:38.412Z,84.38
2023-03-04T09:00:36.977Z,84.38
2023-03-04T09:01:36.942Z,84.38
2023-03-04T09:02:36.923Z,84.38
2023-03-04T09:03:36.875Z,84.38
2023-03-04T09:04:36.837Z,84.38
2023-03-04T09:05:36.819Z,84.38
2023-03-04T09:06:36.803Z,90.00
2023-03-04T09:07:36.790Z,90.00
2023-03-04T09:08:36.774Z,90.00
2023-03-04T09:09:36.759Z,90.00
2023-03-04T09:10:36.739Z,90.00
2023-03-04T09:11:36.726Z,90.00
2023-03-04T09:12:36.712Z,90.00
2023-03-04T09:13:36.768Z,90.00
2023-03-04T09:14:36.739Z,90.00
2023-03-04T09:15:36.696Z,90.00
2023-03-04T09:16:36.652Z,90.00
2023-03-04T09:17:36.642Z,90.00
2023-03-04T09:18:36.615Z,90.00
2023-03-04T09:19:36.607Z,90.00
2023-03-04T09:20:36.586Z,90.00
2023-03-04T09:21:36.575Z,90.00
2023-03-04T09:22:36.554Z,90.00
2023-03-04T09:23:36.586Z,90.00
2023-03-04T09:24:36.524Z,90.00
2023-03-04T09:25:36.515Z,90.00
2023-03-04T09:26:36.493Z,90.00
2023-03-04T09:27:36.483Z,90.00
2023-03-04T09:28:36.464Z,90.00
2023-03-04T09:29:36.451Z,90.00
2023-03-04T09:30:36.454Z,90.00
2023-03-04T09:31:36.510Z,90.00
2023-03-04T09:32:36.488Z,90.00
2023-03-04T09:33:36.392Z,90.00
2023-03-04T09:34:36.389Z,90.00
2023-03-04T09:35:36.415Z,90.00
2023-03-04T09:36:36.353Z,90.00
2023-03-04T09:37:36.331Z,90.00
2023-03-04T09:38:36.315Z,90.00
2023-03-04T09:39:36.302Z,90.00
2023-03-04T09:40:36.282Z,95.63
2023-03-04T09:41:36.273Z,95.63
2023-03-04T09:42:36.255Z,95.63
2023-03-04T09:43:36.243Z,95.63
2023-03-04T09:44:36.222Z,95.63
2023-03-04T09:45:36.214Z,95.63
2023-03-04T09:46:36.318Z,95.63
2023-03-04T09:47:36.186Z,95.63
2023-03-04T09:48:36.164Z,95.63
2023-03-04T09:49:36.155Z,95.63
2023-03-04T09:50:36.136Z,95.63
2023-03-04T09:51:36.125Z,95.63
2023-03-04T09:52:36.106Z,95.63
2023-03-04T09:53:36.097Z,95.63
2023-03-04T09:54:36.078Z,95.63
2023-03-04T09:55:36.066Z,95.63
2023-03-04T09:56:36.046Z,95.63
2023-03-04T09:57:36.039Z,95.63
2023-03-04T09:58:36.017Z,95.63
2023-03-04T09:59:36.024Z,95.63
2023-03-04T10:00:36.049Z,101.25
2023-03-04T10:01:35.989Z,95.63
2023-03-04T10:02:35.985Z,95.63
2023-03-04T10:03:35.983Z,95.63
2023-03-04T10:04:35.947Z,95.63
2023-03-04T10:05:35.920Z,101.25
2023-03-04T10:06:35.904Z,101.25
2023-03-04T10:07:35.890Z,101.25
2023-03-04T10:08:35.874Z,101.25
2023-03-04T10:09:35.861Z,101.25
2023-03-04T10:10:35.879Z,101.25
2023-03-04T10:11:35.846Z,101.25
2023-03-04T10:12:35.817Z,101.25
2023-03-04T10:13:35.803Z,101.25
2023-03-04T10:14:35.791Z,101.25
2023-03-04T10:15:35.778Z,101.25
2023-03-04T10:16:35.832Z,101.25
2023-03-04T10:17:35.746Z,101.25
2023-03-04T10:18:35.748Z,101.25
2023-03-04T10:19:35.721Z,101.25
2023-03-04T10:20:35.701Z,101.25
2023-03-04T10:21:35.693Z,101.25
2023-03-04T10:22:35.671Z,101.25
2023-03-04T10:23:35.660Z,101.25
2023-03-04T10:24:35.645Z,101.25
2023-03-04T10:25:35.632Z,101.25
2023-03-04T10:26:35.615Z,101.25
2023-03-04T10:27:35.602Z,101.25
2023-03-04T10:28:35.589Z,101.25
2023-03-04T10:29:35.575Z,101.25
2023-03-04T10:30:35.553Z,101.25
2023-03-04T10:31:35.577Z,101.25
2023-03-04T10:32:35.536Z,101.25
2023-03-04T10:33:35.512Z,101.25
2023-03-04T10:34:35.524Z,101.25
2023-03-04T10:35:35.490Z,101.25
2023-03-04T10:36:35.471Z,101.25
2023-03-04T10:37:35.458Z,101.25
2023-03-04T10:38:35.439Z,101.25
2023-03-04T10:39:35.427Z,101.25
2023-03-04T10:40:35.410Z,101.25
2023-03-04T10:41:35.520Z,101.25
2023-03-04T10:42:35.437Z,101.25
2023-03-04T10:43:35.371Z,95.63
2023-03-04T10:44:35.373Z,95.63
2023-03-04T10:45:35.419Z,95.63
2023-03-04T10:46:35.327Z,95.63
2023-03-04T10:47:35.321Z,101.25
2023-03-04T10:48:35.310Z,95.63
2023-03-04T10:49:35.288Z,95.63
2023-03-04T10:50:35.287Z,101.25
2023-03-04T10:51:35.259Z,101.25
2023-03-04T10:52:35.244Z,101.25
2023-03-04T10:53:35.230Z,101.25
2023-03-04T10:54:35.214Z,101.25
2023-03-04T10:55:35.203Z,101.25
2023-03-04T10:56:35.187Z,101.25
2023-03-04T10:57:35.175Z,101.25
2023-03-04T10:58:35.159Z,101.25
2023-03-04T10:59:35.149Z,101.25
2023-03-04T11:00:35.145Z,101.25
2023-03-04T11:01:35.125Z,101.25
2023-03-04T11:02:35.108Z,101.25
2023-03-04T11:03:35.166Z,101.25
2023-03-04T11:04:35.080Z,101.25
2023-03-04T11:05:35.070Z,101.25
2023-03-04T11:06:35.085Z,101.25
2023-03-04T11:07:52.289Z,95.63
2023-03-04T11:08:35.024Z,95.63
2023-03-04T11:09:35.015Z,95.63
2023-03-04T11:10:34.999Z,95.63
2023-03-04T11:11:34.992Z,101.25
2023-03-04T11:12:34.996Z,101.25
2023-03-04T11:13:34.966Z,101.25
2023-03-04T11:14:34.947Z,101.25
2023-03-04T11:15:34.937Z,101.25
2023-03-04T11:16:35.042Z,101.25
2023-03-04T11:17:34.911Z,101.25
2023-03-04T11:18:34.896Z,95.63
2023-03-04T11:19:34.891Z,95.63
2023-03-04T11:20:34.868Z,95.63
2023-03-04T11:21:34.857Z,95.63
2023-03-04T11:22:34.866Z,101.25
2023-03-04T11:23:34.833Z,101.25
2023-03-04T11:24:34.819Z,101.25
2023-03-04T11:25:34.802Z,101.25
2023-03-04T11:26:34.791Z,101.25
2023-03-04T11:27:34.792Z,101.25
2023-03-04T11:28:34.764Z,95.63
2023-03-04T11:29:34.754Z,95.63
2023-03-04T11:30:34.739Z,95.63
2023-03-04T11:31:34.790Z,95.63
2023-03-04T11:32:34.800Z,95.63
2023-03-04T11:33:34.702Z,95.63
2023-03-04T11:34:34.686Z,95.63
2023-03-04T11:35:34.767Z,95.63
2023-03-04T11:36:34.667Z,101.25
2023-03-04T11:37:34.662Z,95.63
2023-03-04T11:38:34.668Z,101.25
2023-03-04T11:39:34.663Z,101.25
2023-03-04T11:40:34.637Z,101.25
2023-03-04T11:41:34.634Z,101.25
2023-03-04T11:42:34.607Z,101.25
2023-03-04T11:43:34.606Z,101.25
2023-03-04T11:44:34.585Z,101.25
2023-03-04T11:45:34.593Z,101.25
2023-03-04T11:46:34.565Z,101.25
2023-03-04T11:47:34.556Z,101.25
2023-03-04T11:48:34.542Z,101.25
2023-03-04T11:49:34.535Z,95.63
2023-03-04T11:50:34.516Z,95.63
2023-03-04T11:51:34.718Z,101.25
2023-03-04T11:52:34.700Z,101.25
2023-03-04T11:53:34.486Z,101.25
2023-03-04T11:54:34.504Z,101.25
2023-03-04T11:55:34.460Z,101.25
2023-03-04T11:56:34.447Z,101.25
2023-03-04T11:57:34.437Z,101.25
2023-03-04T11:58:34.417Z,106.88
2023-03-04T11:59:34.607Z,106.88
2023-03-04T12:00:34.391Z,106.88
2023-03-04T12:01:34.382Z,106.88
2023-03-04T12:02:34.367Z,106.88
2023-03-04T12:03:34.378Z,106.88
2023-03-04T12:04:34.376Z,106.88
2023-03-04T12:05:34.334Z,106.88
2023-03-04T12:06:34.318Z,106.88
2023-03-04T12:07:34.308Z,106.88
2023-03-04T12:08:36.216Z,101.25
2023-03-04T12:09:34.288Z,101.25
2023-03-04T12:10:34.289Z,101.25
2023-03-04T12:11:34.262Z,101.25
2023-03-04T12:12:34.256Z,101.25
2023-03-04T12:13:34.239Z,101.25
2023-03-04T12:14:34.236Z,101.25
2023-03-04T12:15:34.290Z,101.25
2023-03-04T12:16:34.199Z,101.25
2023-03-04T12:17:34.190Z,101.25
2023-03-04T12:18:34.186Z,101.25
2023-03-04T12:19:35.139Z,101.25
2023-03-04T12:20:34.153Z,101.25
2023-03-04T12:21:34.145Z,101.25
2023-03-04T12:22:34.133Z,101.25
2023-03-04T12:23:34.124Z,101.25
2023-03-04T12:24:34.106Z,101.25
2023-03-04T12:25:34.099Z,101.25
2023-03-04T12:26:34.117Z,101.25
2023-03-04T12:27:34.075Z,101.25
2023-03-04T12:28:34.061Z,106.88
2023-03-04T12:29:34.060Z,106.88
2023-03-04T12:30:34.035Z,106.88
2023-03-04T12:31:34.097Z,101.25
2023-03-04T12:32:34.057Z,101.25
2023-03-04T12:33:34.080Z,101.25
2023-03-04T12:34:33.994Z,101.25
2023-03-04T12:35:33.981Z,101.25
2023-03-04T12:36:33.963Z,101.25
2023-03-04T12:37:35.561Z,101.25
2023-03-04T12:38:33.939Z,101.25
2023-03-04T12:39:33.930Z,101.25
2023-03-04T12:40:33.915Z,101.25
2023-03-04T12:41:33.908Z,101.25
2023-03-04T12:42:33.918Z,101.25
2023-03-04T12:43:36.000Z,101.25
2023-03-04T12:44:33.870Z,101.25
2023-03-04T12:45:33.866Z,101.25
2023-03-04T12:46:33.889Z,101.25
2023-03-04T12:47:33.848Z,101.25
2023-03-04T12:48:33.837Z,101.25
2023-03-04T12:49:35.557Z,101.25
2023-03-04T12:50:33.801Z,101.25
2023-03-04T12:51:33.798Z,101.25
2023-03-04T12:52:33.787Z,101.25
2023-03-04T12:53:33.776Z,101.25
2023-03-04T12:54:33.764Z,101.25
2023-03-04T12:55:33.745Z,101.25
2023-03-04T12:56:33.738Z,101.25
2023-03-04T12:57:33.722Z,101.25
2023-03-04T12:58:33.738Z,101.25
2023-03-04T12:59:33.702Z,101.25
2023-03-04T13:00:33.689Z,101.25